createdAt,value
2018-09-19T00:00:32.227Z,23.53
2018-09-19T00:04:34.820Z,15.67
2018-09-19T00:08:37.475Z,21.20
2018-09-19T00:12:40.110Z,22.53
2018-09-19T00:16:42.723Z,19.17
2018-09-19T00:20:45.378Z,16.80
2018-09-19T00:24:47.995Z,24.87
2018-09-19T00:28:50.608Z,17.20
2018-09-19T00:32:53.232Z,21.30
2018-09-19T00:36:55.774Z,14.77
2018-09-19T00:40:58.332Z,17.13
2018-09-19T00:45:00.902Z,20.73
2018-09-19T00:49:03.558Z,18.00
2018-09-19T00:53:06.238Z,19.50
2018-09-19T00:57:08.892Z,17.47
2018-09-19T01:01:11.473Z,15.10
2018-09-19T01:05:20.178Z,15.87
2018-09-19T01:09:29.010Z,14.47
2018-09-19T01:13:37.917Z,24.73
2018-09-19T01:17:46.677Z,18.93
2018-09-19T01:21:55.585Z,18.00
2018-09-19T01:26:04.444Z,18.03
2018-09-19T01:30:13.297Z,14.20
2018-09-19T01:34:22.082Z,13.33
2018-09-19T01:38:31.009Z,18.43
2018-09-19T01:42:39.890Z,15.57
2018-09-19T01:46:48.766Z,11.70
2018-09-19T01:50:57.496Z,19.53
2018-09-19T01:55:06.385Z,17.10
2018-09-19T01:59:15.260Z,15.00
2018-09-19T02:03:23.956Z,14.57
2018-09-19T02:07:32.748Z,14.40
2018-09-19T02:11:41.965Z,14.40
2018-09-19T02:15:50.807Z,15.07
2018-09-19T02:19:59.592Z,16.13
2018-09-19T02:24:08.433Z,13.13
2018-09-19T02:28:17.136Z,18.70
2018-09-19T02:32:25.932Z,14.17
2018-09-19T02:36:34.850Z,16.57
2018-09-19T02:40:43.591Z,14.97
2018-09-19T02:44:52.370Z,10.23
2018-09-19T02:49:01.002Z,12.47
2018-09-19T02:53:09.822Z,17.77
2018-09-19T02:57:18.652Z,11.53
2018-09-19T03:01:27.360Z,13.50
2018-09-19T03:05:36.179Z,13.00
2018-09-19T03:09:45.002Z,12.80
2018-09-19T03:13:53.938Z,15.63
2018-09-19T03:18:02.773Z,17.33
2018-09-19T03:22:11.466Z,12.33
2018-09-19T03:26:20.350Z,15.10
2018-09-19T03:30:29.115Z,18.60
2018-09-19T03:34:38.030Z,16.30
2018-09-19T03:38:46.754Z,18.30
2018-09-19T03:42:55.608Z,19.43
2018-09-19T03:47:04.445Z,15.53
2018-09-19T03:51:13.295Z,13.47
2018-09-19T03:55:22.196Z,12.93
2018-09-19T03:59:31.065Z,16.53
2018-09-19T04:03:39.974Z,20.63
2018-09-19T04:07:48.734Z,18.93
2018-09-19T04:11:57.558Z,18.77
2018-09-19T04:16:06.326Z,16.40
2018-09-19T04:20:15.104Z,13.77
2018-09-19T04:24:23.913Z,19.67
2018-09-19T04:28:32.796Z,16.27
2018-09-19T04:32:41.564Z,14.07
2018-09-19T04:36:50.356Z,23.23
2018-09-19T04:40:59.123Z,20.23
2018-09-19T04:45:07.947Z,14.73
2018-09-19T04:49:16.691Z,20.93
2018-09-19T04:53:25.589Z,15.23
2018-09-19T04:57:34.288Z,16.10
2018-09-19T05:01:43.086Z,20.27
2018-09-19T05:05:51.973Z,21.37
2018-09-19T05:10:00.807Z,23.53
2018-09-19T05:14:09.703Z,16.77
2018-09-19T05:18:18.629Z,16.57
2018-09-19T05:22:27.593Z,17.37
2018-09-19T05:26:36.458Z,14.67
2018-09-19T05:30:45.091Z,17.00
2018-09-19T05:34:54.029Z,18.73
2018-09-19T05:39:03.333Z,16.10
2018-09-19T05:43:12.094Z,16.70
2018-09-19T05:47:20.916Z,21.60
2018-09-19T05:51:30.038Z,22.83
2018-09-19T05:55:38.698Z,19.97
2018-09-19T05:59:48.095Z,27.17
2018-09-19T06:03:57.095Z,20.80
2018-09-19T06:08:05.798Z,25.63
2018-09-19T06:12:14.526Z,20.80
2018-09-19T06:16:23.299Z,26.50
2018-09-19T06:20:32.114Z,20.23
2018-09-19T06:24:40.963Z,20.60
2018-09-19T06:28:49.599Z,29.77
2018-09-19T06:32:58.520Z,27.20
2018-09-19T06:37:07.428Z,28.23
2018-09-19T06:41:16.222Z,25.97
2018-09-19T06:45:25.139Z,24.10
2018-09-19T06:49:34.028Z,22.23
2018-09-19T06:53:42.857Z,18.07
2018-09-19T06:57:51.736Z,21.80
2018-09-19T07:02:00.639Z,24.27
2018-09-19T07:06:09.421Z,22.83
2018-09-19T07:10:18.282Z,23.03
2018-09-19T07:14:27.005Z,22.70
2018-09-19T07:18:35.803Z,35.83
2018-09-19T07:22:44.599Z,19.67
2018-09-19T07:26:53.354Z,28.83
2018-09-19T07:31:02.253Z,21.23
2018-09-19T07:35:10.892Z,25.97
2018-09-19T07:39:19.721Z,25.50
2018-09-19T07:43:28.369Z,17.53
2018-09-19T07:47:37.274Z,16.80
2018-09-19T07:51:46.142Z,23.50
2018-09-19T07:55:54.822Z,14.37
2018-09-19T08:00:03.682Z,21.97
2018-09-19T08:04:12.434Z,17.77
2018-09-19T08:08:21.459Z,15.83
2018-09-19T08:12:30.286Z,19.63
2018-09-19T08:16:39.095Z,13.30
2018-09-19T08:20:47.847Z,20.10
2018-09-19T08:24:56.675Z,18.90
2018-09-19T08:29:05.344Z,13.70
2018-09-19T08:33:14.051Z,13.80
2018-09-19T08:37:22.753Z,19.27
2018-09-19T08:41:31.351Z,15.87
2018-09-19T08:45:40.040Z,18.27
2018-09-19T08:49:48.910Z,17.93
2018-09-19T08:53:57.787Z,15.13
2018-09-19T08:58:06.537Z,13.80
2018-09-19T09:02:15.268Z,18.67
2018-09-19T09:06:24.003Z,12.70
2018-09-19T09:10:32.699Z,14.30
2018-09-19T09:14:41.328Z,12.03
2018-09-19T09:18:50.065Z,13.13
2018-09-19T09:22:58.960Z,14.87
2018-09-19T09:27:07.827Z,13.90
2018-09-19T09:31:16.557Z,14.03
2018-09-19T09:35:25.571Z,13.70
2018-09-19T09:39:34.485Z,15.80
2018-09-19T09:43:43.265Z,13.50
2018-09-19T09:47:51.998Z,14.00
2018-09-19T09:52:00.730Z,15.57
2018-09-19T09:56:09.528Z,20.93
2018-09-19T10:00:22.705Z,18.57
2018-09-19T10:04:31.640Z,13.10
2018-09-19T10:08:40.268Z,15.27
2018-09-19T10:12:49.203Z,16.80
2018-09-19T10:16:57.935Z,14.10
2018-09-19T10:21:06.739Z,18.37
2018-09-19T10:25:15.605Z,16.03
2018-09-19T10:29:24.449Z,17.50
2018-09-19T10:33:33.141Z,21.63
2018-09-19T10:37:41.832Z,23.30
2018-09-19T10:41:50.695Z,11.03
2018-09-19T10:45:59.419Z,14.13
2018-09-19T10:50:08.295Z,16.00
2018-09-19T10:54:17.129Z,10.57
2018-09-19T10:58:25.812Z,14.77
2018-09-19T11:02:34.590Z,13.67
2018-09-19T11:06:43.373Z,8.93
2018-09-19T11:10:52.050Z,9.43
2018-09-19T11:15:00.808Z,9.17
2018-09-19T11:19:09.533Z,9.97
2018-09-19T11:23:18.596Z,11.37
2018-09-19T11:27:27.438Z,12.90
2018-09-19T11:31:36.347Z,12.93
2018-09-19T11:35:45.305Z,14.67
2018-09-19T11:39:54.099Z,11.50
2018-09-19T11:44:02.788Z,11.30
2018-09-19T11:48:11.486Z,14.33
2018-09-19T11:52:20.776Z,12.43
2018-09-19T11:56:29.684Z,12.53
2018-09-19T12:00:38.609Z,9.97
2018-09-19T12:04:47.402Z,12.17
2018-09-19T12:08:55.997Z,11.67
2018-09-19T12:13:06.212Z,10.43
2018-09-19T12:17:14.984Z,11.83
2018-09-19T12:21:23.768Z,12.43
2018-09-19T12:25:32.618Z,11.93
2018-09-19T12:29:41.480Z,16.20
2018-09-19T12:33:50.352Z,13.90
2018-09-19T12:37:59.309Z,15.13
2018-09-19T12:42:08.041Z,14.10
2018-09-19T12:46:16.939Z,17.27
2018-09-19T12:50:25.820Z,14.13
2018-09-19T12:54:34.515Z,14.13
2018-09-19T12:58:43.557Z,16.57
2018-09-19T13:02:52.312Z,13.80
2018-09-19T13:07:01.236Z,11.20
2018-09-19T13:11:10.045Z,10.40
2018-09-19T13:15:18.762Z,8.53
2018-09-19T13:19:27.689Z,10.73
2018-09-19T13:23:36.493Z,9.80
2018-09-19T13:27:45.265Z,10.37
2018-09-19T13:31:54.671Z,7.37
2018-09-19T13:36:03.437Z,9.03
2018-09-19T13:40:12.468Z,10.80
2018-09-19T13:44:21.157Z,7.73
2018-09-19T13:48:30.240Z,10.60
2018-09-19T13:52:39.204Z,9.97
2018-09-19T13:56:47.921Z,9.10
2018-09-19T14:00:56.843Z,11.07
2018-09-19T14:05:05.661Z,7.07
2018-09-19T14:09:15.299Z,10.70
2018-09-19T14:13:24.021Z,7.83
2018-09-19T14:17:32.591Z,11.33
2018-09-19T14:21:41.315Z,8.77
2018-09-19T14:25:50.173Z,11.33
2018-09-19T14:29:59.257Z,11.63
2018-09-19T14:34:09.582Z,12.13
2018-09-19T14:38:18.429Z,9.33
2018-09-19T14:42:32.478Z,10.83
2018-09-19T14:50:57.900Z,12.40
2018-09-19T14:55:10.551Z,10.27
2018-09-19T14:59:19.379Z,10.83
2018-09-19T15:03:28.146Z,12.00
2018-09-19T15:07:36.944Z,10.03
2018-09-19T15:11:45.863Z,9.10
2018-09-19T15:15:54.666Z,9.03
2018-09-19T15:20:03.681Z,12.87
2018-09-19T15:24:12.571Z,7.87
2018-09-19T15:28:21.284Z,15.27
2018-09-19T15:32:30.080Z,11.03
2018-09-19T15:36:39.212Z,8.90
2018-09-19T15:40:48.289Z,17.63
2018-09-19T15:44:57.144Z,6.70
2018-09-19T15:48:59.894Z,8.27
2018-09-19T15:53:03.714Z,13.30
2018-09-19T15:57:06.853Z,8.47
2018-09-19T16:01:09.639Z,10.60
2018-09-19T16:05:13.590Z,12.87
2018-09-19T16:09:16.756Z,7.37
2018-09-19T16:13:20.175Z,11.60
2018-09-19T16:17:22.916Z,10.07
2018-09-19T16:21:26.529Z,9.07
2018-09-19T16:25:29.229Z,11.00
2018-09-19T16:29:32.394Z,10.13
2018-09-19T16:33:35.084Z,8.70
2018-09-19T16:37:37.861Z,11.20
2018-09-19T16:41:40.604Z,12.67
2018-09-19T16:45:43.382Z,9.73
2018-09-19T16:49:45.947Z,14.03
2018-09-19T16:53:48.674Z,10.93
2018-09-19T16:57:51.445Z,11.87
2018-09-19T17:01:54.254Z,6.87
2018-09-19T17:05:56.851Z,9.10
2018-09-19T17:09:59.468Z,7.63
2018-09-19T17:14:02.123Z,7.67
2018-09-19T17:18:05.090Z,10.13
2018-09-19T17:22:08.012Z,12.70
2018-09-19T17:26:12.218Z,11.43
2018-09-19T17:30:14.829Z,12.00
2018-09-19T17:34:17.602Z,6.97
2018-09-19T17:38:20.847Z,12.00
2018-09-19T17:42:23.741Z,11.03
2018-09-19T17:46:27.569Z,10.50
2018-09-19T17:50:30.242Z,8.80
2018-09-19T17:54:34.390Z,19.53
2018-09-19T17:58:38.141Z,11.30
2018-09-19T18:02:40.998Z,17.47
2018-09-19T18:06:43.675Z,11.10
2018-09-19T18:10:47.271Z,13.17
2018-09-19T18:14:50.673Z,16.47
2018-09-19T18:18:53.414Z,13.03
2018-09-19T18:22:56.248Z,12.50
2018-09-19T18:26:59.253Z,11.03
2018-09-19T18:31:03.181Z,15.53
2018-09-19T18:35:05.875Z,14.30
2018-09-19T18:39:09.829Z,20.43
2018-09-19T18:47:33.819Z,16.83
2018-09-19T18:51:36.400Z,11.17
2018-09-19T18:55:39.176Z,20.97
2018-09-19T18:59:41.992Z,15.30
2018-09-19T19:03:46.939Z,22.30
2018-09-19T19:07:49.859Z,18.37
2018-09-19T19:11:52.741Z,13.27
2018-09-19T19:15:57.192Z,12.73
2018-09-19T19:20:00.065Z,13.77
2018-09-19T19:24:02.922Z,13.80
2018-09-19T19:28:06.079Z,18.47
2018-09-19T19:32:08.790Z,14.10
2018-09-19T19:36:11.704Z,18.77
2018-09-19T19:40:14.970Z,12.80
2018-09-19T19:44:17.707Z,15.53
2018-09-19T19:48:20.338Z,17.10
2018-09-19T19:52:23.317Z,15.67
2018-09-19T19:56:26.009Z,18.70
2018-09-19T20:00:28.658Z,13.50
2018-09-19T20:04:32.478Z,18.40
2018-09-19T20:08:35.991Z,14.70
2018-09-19T20:12:38.931Z,16.13
2018-09-19T20:16:41.642Z,12.97
2018-09-19T20:20:44.269Z,14.77
2018-09-19T20:24:47.079Z,20.00
2018-09-19T20:28:49.817Z,18.23
2018-09-19T20:32:52.631Z,20.13
2018-09-19T20:36:55.325Z,16.87
2018-09-19T20:40:58.786Z,15.60
2018-09-19T20:45:05.492Z,17.53
2018-09-19T20:49:09.623Z,20.73
2018-09-19T20:53:12.710Z,16.47
2018-09-19T20:57:15.466Z,19.67
2018-09-19T21:01:18.230Z,15.60
2018-09-19T21:05:21.814Z,16.83
2018-09-19T21:09:24.537Z,17.37
2018-09-19T21:13:27.201Z,14.47
2018-09-19T21:17:29.892Z,17.13
2018-09-19T21:21:32.760Z,16.40
2018-09-19T21:25:35.791Z,16.37
2018-09-19T21:29:38.493Z,18.43
2018-09-19T21:33:41.119Z,15.30
2018-09-19T21:37:43.774Z,23.27
2018-09-19T21:41:46.427Z,22.27
2018-09-19T21:45:49.062Z,16.67
2018-09-19T21:49:51.680Z,21.63
2018-09-19T21:53:54.269Z,19.63
2018-09-19T21:57:56.973Z,17.43
2018-09-19T22:02:00.397Z,21.07
2018-09-19T22:06:03.059Z,18.90
2018-09-19T22:10:05.747Z,21.30
2018-09-19T22:14:08.538Z,16.90
2018-09-19T22:18:11.188Z,17.80
2018-09-19T22:22:13.772Z,18.77
2018-09-19T22:26:17.746Z,14.00
2018-09-19T22:30:20.412Z,17.80
2018-09-19T22:34:23.061Z,22.77
2018-09-19T22:38:25.692Z,14.50
2018-09-19T22:42:28.390Z,18.67
2018-09-19T22:46:31.038Z,18.07
2018-09-19T22:50:33.741Z,17.47
2018-09-19T22:54:36.384Z,16.97
2018-09-19T22:58:39.034Z,21.57
2018-09-19T23:02:41.602Z,25.80
2018-09-19T23:06:44.264Z,19.60
2018-09-19T23:10:46.908Z,25.37
2018-09-19T23:14:49.655Z,20.93
2018-09-19T23:18:52.341Z,21.73
2018-09-19T23:22:54.992Z,26.83
2018-09-19T23:26:57.635Z,20.80
2018-09-19T23:31:00.337Z,21.00
2018-09-19T23:35:02.977Z,27.53
2018-09-19T23:39:07.052Z,15.50
2018-09-19T23:43:09.720Z,20.70
2018-09-19T23:47:12.492Z,17.47
2018-09-19T23:51:15.124Z,14.07
2018-09-19T23:55:17.721Z,21.40
2018-09-19T23:59:20.353Z,19.60
